createdAt,value
2018-03-22T00:01:14.036Z,95075.63
2018-03-22T00:03:42.437Z,95079.97
2018-03-22T00:06:10.893Z,95074.83
2018-03-22T00:08:39.358Z,95035.25
2018-03-22T00:11:07.769Z,95076.07
2018-03-22T00:13:36.214Z,95077.75
2018-03-22T00:16:04.617Z,95073.33
2018-03-22T00:18:33.090Z,95069.69
2018-03-22T00:21:01.493Z,95065.72
2018-03-22T00:23:29.890Z,95064.08
2018-03-22T00:25:58.321Z,95062.15
2018-03-22T00:28:26.801Z,95065.08
2018-03-22T00:30:55.200Z,95069.55
2018-03-22T00:33:23.668Z,95040.87
2018-03-22T00:35:52.045Z,95061.12
2018-03-22T00:38:20.481Z,95060.92
2018-03-22T00:40:48.842Z,95037.79
2018-03-22T00:43:17.253Z,95015.32
2018-03-22T00:45:45.679Z,95047.27
2018-03-22T00:48:14.106Z,95048.55
2018-03-22T00:50:42.498Z,95032.73
2018-03-22T00:53:10.997Z,95037.71
2018-03-22T00:55:39.384Z,95037.17
2018-03-22T00:58:07.780Z,95022.67
2018-03-22T01:00:36.214Z,94946.49
2018-03-22T01:03:04.712Z,95017.66
2018-03-22T01:05:33.199Z,95021.21
2018-03-22T01:08:01.623Z,95003.64
2018-03-22T01:10:30.006Z,95008.06
2018-03-22T01:12:58.434Z,95020.07
2018-03-22T01:15:26.893Z,95005.34
2018-03-22T01:17:55.302Z,95025.45
2018-03-22T01:20:23.712Z,94989.12
2018-03-22T01:22:52.113Z,94980.06
2018-03-22T01:25:20.491Z,95023.93
2018-03-22T01:27:48.895Z,95008.37
2018-03-22T01:30:29.165Z,94996.47
2018-03-22T01:32:57.674Z,95012.08
2018-03-22T01:35:26.124Z,95012.08
2018-03-22T01:37:54.490Z,95012.67
2018-03-22T01:40:22.948Z,95002.84
2018-03-22T01:42:51.383Z,95001.39
2018-03-22T01:45:19.841Z,95006.95
2018-03-22T01:47:48.343Z,95012.09
2018-03-22T01:50:16.707Z,95009.36
2018-03-22T01:52:57.296Z,95001.33
2018-03-22T01:55:25.665Z,95014.27
2018-03-22T01:57:54.125Z,95015.16
2018-03-22T02:00:22.544Z,95008.91
2018-03-22T02:02:50.978Z,95013.63
2018-03-22T02:05:19.453Z,95021.64
2018-03-22T02:07:47.859Z,95016.66
2018-03-22T02:10:16.537Z,95001.72
2018-03-22T02:12:44.940Z,95012.88
2018-03-22T02:15:13.508Z,95012.88
2018-03-22T02:17:41.977Z,95009.17
2018-03-22T02:20:10.416Z,94998.47
2018-03-22T02:22:38.933Z,95017.33
2018-03-22T02:25:07.380Z,94935.25
2018-03-22T02:27:35.840Z,94988.24
2018-03-22T02:30:04.338Z,94989.25
2018-03-22T02:32:32.745Z,94992.47
2018-03-22T02:35:01.226Z,94982.91
2018-03-22T02:37:29.693Z,94989.34
2018-03-22T02:39:58.108Z,94960.07
2018-03-22T02:42:26.501Z,94975.73
2018-03-22T02:44:55.009Z,94976.84
2018-03-22T02:47:23.396Z,94969.50
2018-03-22T02:49:51.844Z,94960.48
2018-03-22T02:52:20.325Z,94972.32
2018-03-22T02:54:48.698Z,94964.66
2018-03-22T02:57:17.117Z,94963.38
2018-03-22T02:59:45.722Z,94958.14
2018-03-22T03:02:14.121Z,94938.89
2018-03-22T03:04:42.561Z,94944.46
2018-03-22T03:07:10.956Z,94946.98
2018-03-22T03:09:39.380Z,94941.56
2018-03-22T03:12:07.793Z,94931.44
2018-03-22T03:14:36.217Z,94929.80
2018-03-22T03:17:04.610Z,94932.63
2018-03-22T03:19:33.028Z,94932.15
2018-03-22T03:22:01.432Z,94927.94
2018-03-22T03:24:29.910Z,94918.03
2018-03-22T03:26:58.358Z,94920.78
2018-03-22T03:29:26.832Z,94877.03
2018-03-22T03:31:55.294Z,94916.41
2018-03-22T03:34:23.704Z,94913.70
2018-03-22T03:36:52.128Z,94900.15
2018-03-22T03:39:20.556Z,94894.85
2018-03-22T03:41:48.980Z,94909.70
2018-03-22T03:44:17.414Z,94914.31
2018-03-22T03:46:45.793Z,94910.05
2018-03-22T03:49:14.505Z,94909.02
2018-03-22T03:51:42.930Z,94755.36
2018-03-22T03:54:11.364Z,94897.52
2018-03-22T03:56:39.797Z,94897.55
2018-03-22T03:59:08.202Z,94892.88
2018-03-22T04:01:36.697Z,94886.48
2018-03-22T04:04:05.244Z,94877.86
2018-03-22T04:06:33.685Z,94867.57
2018-03-22T04:09:02.089Z,94874.22
2018-03-22T04:11:30.537Z,94892.58
2018-03-22T04:13:59.020Z,94902.08
2018-03-22T04:16:27.436Z,94906.36
2018-03-22T04:18:55.828Z,94895.77
2018-03-22T04:21:24.418Z,94903.91
2018-03-22T04:23:52.848Z,94901.28
2018-03-22T04:26:21.215Z,94892.33
2018-03-22T04:28:49.621Z,94900.97
2018-03-22T04:31:18.050Z,94893.97
2018-03-22T04:33:46.452Z,94901.80
2018-03-22T04:36:14.893Z,94901.35
2018-03-22T04:38:43.285Z,94902.84
2018-03-22T04:41:11.720Z,94888.70
2018-03-22T04:43:40.160Z,94885.35
2018-03-22T04:46:08.580Z,94877.30
2018-03-22T04:48:37.013Z,94881.23
2018-03-22T04:51:05.486Z,94887.78
2018-03-22T04:53:33.885Z,94906.33
2018-03-22T04:56:02.316Z,94893.54
2018-03-22T04:58:30.712Z,94887.07
2018-03-22T05:00:59.121Z,94876.33
2018-03-22T05:03:27.576Z,94884.08
2018-03-22T05:05:55.976Z,94876.50
2018-03-22T05:08:24.416Z,94874.55
2018-03-22T05:10:52.859Z,94860.91
2018-03-22T05:13:21.261Z,94865.31
2018-03-22T05:15:49.684Z,94870.68
2018-03-22T05:18:18.132Z,94879.51
2018-03-22T05:20:46.655Z,94880.53
2018-03-22T05:23:15.072Z,94878.37
2018-03-22T05:25:43.527Z,94872.20
2018-03-22T05:28:12.103Z,94859.45
2018-03-22T05:30:40.496Z,94852.09
2018-03-22T05:33:08.942Z,94853.38
2018-03-22T05:35:37.448Z,94859.75
2018-03-22T05:38:05.892Z,94852.78
2018-03-22T05:40:34.353Z,94852.45
2018-03-22T05:43:02.807Z,94847.42
2018-03-22T05:45:31.324Z,94829.16
2018-03-22T05:47:59.803Z,94852.74
2018-03-22T05:50:28.233Z,94805.17
2018-03-22T05:52:56.661Z,94835.34
2018-03-22T05:55:25.118Z,94830.15
2018-03-22T05:57:53.563Z,94829.81
2018-03-22T06:00:21.992Z,94834.55
2018-03-22T06:02:50.430Z,94838.52
2018-03-22T06:05:18.850Z,94831.99
2018-03-22T06:07:47.281Z,94835.75
2018-03-22T06:10:15.693Z,94838.69
2018-03-22T06:12:44.156Z,94841.34
2018-03-22T06:15:12.620Z,94844.36
2018-03-22T06:17:41.195Z,94844.86
2018-03-22T06:20:09.668Z,94850.41
2018-03-22T06:22:38.136Z,94850.30
2018-03-22T06:25:06.640Z,94852.20
2018-03-22T06:27:35.089Z,94836.52
2018-03-22T06:30:03.542Z,94869.97
2018-03-22T06:32:32.008Z,94880.25
2018-03-22T06:35:00.450Z,94864.37
2018-03-22T06:37:28.942Z,94856.94
2018-03-22T06:39:57.440Z,94855.66
2018-03-22T06:42:26.056Z,94848.53
2018-03-22T06:44:54.572Z,94841.53
2018-03-22T06:47:23.084Z,94829.79
2018-03-22T06:49:51.600Z,94813.26
2018-03-22T06:52:19.977Z,94797.19
2018-03-22T06:54:48.605Z,94776.39
2018-03-22T06:57:17.078Z,94801.48
2018-03-22T06:59:45.464Z,94811.93
2018-03-22T07:02:13.954Z,94809.43
2018-03-22T07:04:42.361Z,94786.38
2018-03-22T07:07:10.811Z,94807.89
2018-03-22T07:09:39.492Z,94805.42
2018-03-22T07:12:07.865Z,94804.80
2018-03-22T07:14:36.404Z,94798.42
2018-03-22T07:17:04.841Z,94795.42
2018-03-22T07:19:33.348Z,94800.83
2018-03-22T07:22:01.741Z,94806.58
2018-03-22T07:24:30.173Z,94808.95
2018-03-22T07:26:58.607Z,94791.11
2018-03-22T07:29:27.070Z,94789.52
2018-03-22T07:31:55.560Z,94748.45
2018-03-22T07:34:24.033Z,94762.22
2018-03-22T07:36:52.466Z,94752.66
2018-03-22T07:39:20.901Z,94746.34
2018-03-22T07:41:49.440Z,94742.52
2018-03-22T07:44:23.664Z,94745.89
2018-03-22T07:46:52.045Z,94704.71
2018-03-22T07:49:20.454Z,94746.62
2018-03-22T07:51:48.887Z,94722.20
2018-03-22T07:54:17.376Z,94746.43
2018-03-22T07:56:45.832Z,94744.28
2018-03-22T07:59:14.240Z,94742.25
2018-03-22T08:01:42.617Z,94739.42
2018-03-22T08:04:11.160Z,94732.53
2018-03-22T08:06:39.530Z,94722.27
2018-03-22T08:09:07.935Z,94713.25
2018-03-22T08:11:36.396Z,94702.09
2018-03-22T08:14:04.903Z,94698.88
2018-03-22T08:16:33.290Z,94672.22
2018-03-22T08:19:01.735Z,94689.06
2018-03-22T08:21:30.106Z,94652.59
2018-03-22T08:23:58.519Z,94667.71
2018-03-22T08:26:26.900Z,94683.53
2018-03-22T08:28:55.385Z,94674.02
2018-03-22T08:31:23.836Z,94673.86
2018-03-22T08:33:52.368Z,94648.41
2018-03-22T08:36:20.844Z,94576.87
2018-03-22T08:38:49.209Z,94656.52
2018-03-22T08:41:17.628Z,94649.70
2018-03-22T08:43:46.037Z,94646.78
2018-03-22T08:46:14.553Z,94613.06
2018-03-22T08:48:42.999Z,94633.22
2018-03-22T08:51:11.431Z,94631.49
2018-03-22T08:53:39.877Z,94626.38
2018-03-22T08:56:08.269Z,94628.91
2018-03-22T08:58:36.680Z,94622.77
2018-03-22T09:01:05.056Z,94625.09
2018-03-22T09:03:33.521Z,94615.64
2018-03-22T09:06:03.122Z,94612.19
2018-03-22T09:08:31.544Z,94604.10
2018-03-22T09:10:59.961Z,94609.08
2018-03-22T09:13:28.404Z,94593.05
2018-03-22T09:15:56.820Z,94592.81
2018-03-22T09:18:25.264Z,94587.80
2018-03-22T09:20:53.644Z,94583.61
2018-03-22T09:23:22.467Z,94583.00
2018-03-22T09:25:50.920Z,94585.43
2018-03-22T09:28:19.293Z,94579.33
2018-03-22T09:30:47.685Z,94570.19
2018-03-22T09:33:16.045Z,94574.81
2018-03-22T09:35:44.459Z,94549.74
2018-03-22T09:38:12.854Z,94563.56
2018-03-22T09:40:41.261Z,94548.64
2018-03-22T09:43:09.629Z,94540.14
2018-03-22T09:45:38.088Z,94534.58
2018-03-22T09:48:06.480Z,94537.98
2018-03-22T09:50:34.864Z,94530.33
2018-03-22T09:53:03.297Z,94530.02
2018-03-22T09:55:31.722Z,94536.52
2018-03-22T09:58:00.080Z,94532.61
2018-03-22T10:00:28.549Z,94532.81
2018-03-22T10:02:57.014Z,94523.61
2018-03-22T10:05:25.404Z,94523.17
2018-03-22T10:07:53.801Z,94522.21
2018-03-22T10:10:22.210Z,94527.44
2018-03-22T10:12:50.631Z,94515.30
2018-03-22T10:15:19.061Z,94519.17
2018-03-22T10:17:47.450Z,94532.43
2018-03-22T10:20:15.859Z,94525.44
2018-03-22T10:22:44.349Z,94515.59
2018-03-22T10:25:12.715Z,94506.59
2018-03-22T10:27:41.099Z,94499.30
2018-03-22T10:30:09.513Z,94498.41
2018-03-22T10:32:37.960Z,94499.20
2018-03-22T10:35:06.338Z,94495.42
2018-03-22T10:37:34.765Z,94504.45
2018-03-22T10:40:03.164Z,94500.58
2018-03-22T10:42:31.545Z,94488.80
2018-03-22T10:44:59.964Z,94505.72
2018-03-22T10:47:28.329Z,94484.59
2018-03-22T10:49:56.793Z,94491.84
2018-03-22T10:52:25.245Z,94470.27
2018-03-22T10:54:53.664Z,94480.77
2018-03-22T10:57:22.025Z,94476.23
2018-03-22T10:59:50.409Z,94469.65
2018-03-22T11:02:24.256Z,94474.70
2018-03-22T11:04:59.691Z,94464.70
2018-03-22T11:07:28.062Z,94467.22
2018-03-22T11:09:56.665Z,94470.42
2018-03-22T11:12:25.078Z,94479.67
2018-03-22T11:14:53.468Z,94477.85
2018-03-22T11:17:21.845Z,94471.34
2018-03-22T11:19:50.270Z,94460.01
2018-03-22T11:22:18.655Z,94453.90
2018-03-22T11:24:47.061Z,94454.57
2018-03-22T11:27:15.498Z,94448.66
2018-03-22T11:29:43.904Z,94438.27
2018-03-22T11:32:12.307Z,94424.15
2018-03-22T11:34:40.712Z,94430.23
2018-03-22T11:37:09.065Z,94443.17
2018-03-22T11:39:37.433Z,94433.11
2018-03-22T11:42:05.872Z,94429.76
2018-03-22T11:44:34.291Z,94435.28
2018-03-22T11:47:02.661Z,94418.16
2018-03-22T11:49:31.100Z,94401.89
2018-03-22T11:51:59.483Z,94404.59
2018-03-22T11:54:27.920Z,94402.78
2018-03-22T11:56:56.376Z,94396.83
2018-03-22T11:59:24.830Z,94399.28
2018-03-22T12:01:53.218Z,94376.76
2018-03-22T12:04:21.621Z,94384.16
2018-03-22T12:06:50.068Z,94379.99
2018-03-22T12:09:18.486Z,94381.85
2018-03-22T12:11:46.901Z,94379.78
2018-03-22T12:14:15.314Z,94376.35
2018-03-22T12:16:43.684Z,94373.66
2018-03-22T12:19:12.100Z,94384.10
2018-03-22T12:21:40.631Z,94393.14
2018-03-22T12:24:08.960Z,94387.69
2018-03-22T12:26:37.328Z,94394.81
2018-03-22T12:29:05.693Z,94389.95
2018-03-22T12:31:34.161Z,94311.25
2018-03-22T12:34:02.535Z,94400.42
2018-03-22T12:36:30.945Z,94395.32
2018-03-22T12:38:59.308Z,94373.37
2018-03-22T12:41:27.772Z,94364.20
2018-03-22T12:43:56.209Z,94357.06
2018-03-22T12:46:24.630Z,94351.02
2018-03-22T12:48:53.032Z,94352.03
2018-03-22T12:51:21.442Z,94336.03
2018-03-22T12:53:49.917Z,94335.09
2018-03-22T12:56:18.320Z,94340.23
2018-03-22T12:58:46.768Z,94249.11
2018-03-22T13:01:15.120Z,94333.70
2018-03-22T13:03:43.580Z,94303.25
2018-03-22T13:06:11.985Z,94308.89
2018-03-22T13:08:40.560Z,94317.88
2018-03-22T13:11:08.997Z,94313.38
2018-03-22T13:13:37.432Z,94304.26
2018-03-22T13:16:05.833Z,94310.47
2018-03-22T13:18:34.442Z,94325.95
2018-03-22T13:21:02.797Z,94322.98
2018-03-22T13:23:31.241Z,94305.13
2018-03-22T13:25:59.825Z,94252.08
2018-03-22T13:28:31.681Z,94288.23
2018-03-22T13:31:00.068Z,94288.03
2018-03-22T13:33:28.468Z,94281.62
2018-03-22T13:35:56.918Z,94290.48
2018-03-22T13:38:25.412Z,94282.98
2018-03-22T13:40:54.318Z,94274.12
2018-03-22T13:43:23.160Z,94273.16
2018-03-22T13:45:51.581Z,94243.28
2018-03-22T13:48:21.158Z,94237.37
2018-03-22T13:50:49.658Z,94229.29
2018-03-22T13:53:18.149Z,94233.91
2018-03-22T13:55:46.567Z,94237.48
2018-03-22T13:58:15.092Z,94211.68
2018-03-22T14:00:43.484Z,94216.25
2018-03-22T14:03:11.873Z,94212.91
2018-03-22T14:05:40.293Z,94206.07
2018-03-22T14:08:08.730Z,94215.87
2018-03-22T14:10:37.169Z,94213.34
2018-03-22T14:13:05.575Z,94216.80
2018-03-22T14:15:34.020Z,94209.17
2018-03-22T14:18:02.496Z,94208.48
2018-03-22T14:20:30.921Z,94210.50
2018-03-22T14:22:59.458Z,94205.25
2018-03-22T14:25:27.862Z,94190.92
2018-03-22T14:27:56.585Z,94201.52
2018-03-22T14:30:25.000Z,94204.10
2018-03-22T14:32:53.459Z,94199.65
2018-03-22T14:35:22.015Z,94201.13
2018-03-22T14:37:50.460Z,94197.97
2018-03-22T14:40:19.052Z,94176.51
2018-03-22T14:42:47.475Z,94170.98
2018-03-22T14:45:15.880Z,94172.42
2018-03-22T14:47:44.318Z,94160.98
2018-03-22T14:50:12.712Z,94150.63
2018-03-22T14:52:41.151Z,94149.69
2018-03-22T14:55:09.585Z,94189.28
2018-03-22T14:57:37.988Z,94187.91
2018-03-22T15:00:06.460Z,94184.88
2018-03-22T15:02:34.896Z,94181.58
2018-03-22T15:05:03.285Z,94191.86
2018-03-22T15:07:31.752Z,94154.29
2018-03-22T15:10:00.120Z,94176.07
2018-03-22T15:12:28.564Z,94184.27
2018-03-22T15:14:57.016Z,94195.06
2018-03-22T15:17:25.464Z,94175.67
2018-03-22T15:19:53.888Z,94176.33
2018-03-22T15:22:22.336Z,94173.57
2018-03-22T15:24:51.227Z,94154.78
2018-03-22T15:27:19.673Z,94173.09
2018-03-22T15:29:48.090Z,94141.47
2018-03-22T15:32:16.520Z,94160.38
2018-03-22T15:34:44.926Z,94154.70
2018-03-22T15:37:13.348Z,94144.67
2018-03-22T15:39:41.884Z,94135.71
2018-03-22T15:42:10.315Z,94132.27
2018-03-22T15:44:38.793Z,94119.38
2018-03-22T15:47:07.217Z,94118.06
2018-03-22T15:49:35.582Z,94104.67
2018-03-22T15:52:03.992Z,94125.55
2018-03-22T15:54:32.368Z,94126.95
2018-03-22T15:57:01.569Z,94076.73
2018-03-22T15:59:30.088Z,94119.20
2018-03-22T16:01:58.492Z,94118.91
2018-03-22T16:04:29.185Z,94123.53
2018-03-22T16:06:57.641Z,94099.77
2018-03-22T16:09:25.990Z,94040.80
2018-03-22T16:11:54.524Z,94110.48
2018-03-22T16:14:22.949Z,94099.66
2018-03-22T16:16:51.359Z,94106.80
2018-03-22T16:19:19.808Z,94097.59
2018-03-22T16:21:48.560Z,94088.32
2018-03-22T16:24:16.988Z,94088.39
2018-03-22T16:26:45.360Z,94077.55
2018-03-22T16:29:13.729Z,94070.23
2018-03-22T16:31:42.355Z,94064.17
2018-03-22T16:34:10.749Z,94093.84
2018-03-22T16:36:39.164Z,94087.70
2018-03-22T16:39:07.617Z,94092.48
2018-03-22T16:41:36.077Z,94089.14
2018-03-22T16:44:04.496Z,94105.96
2018-03-22T16:46:32.892Z,94106.59
2018-03-22T16:49:01.265Z,94095.30
2018-03-22T16:51:29.692Z,94081.03
2018-03-22T16:53:58.088Z,94099.45
2018-03-22T16:56:26.479Z,94084.08
2018-03-22T16:58:54.876Z,94062.33
2018-03-22T17:01:23.280Z,94039.63
2018-03-22T17:03:51.700Z,94064.06
2018-03-22T17:06:20.106Z,94046.72
2018-03-22T17:08:48.654Z,94038.06
2018-03-22T17:11:17.034Z,94051.25
2018-03-22T17:13:45.470Z,94064.37
2018-03-22T17:16:13.856Z,94050.66
2018-03-22T17:18:42.285Z,94030.86
2018-03-22T17:21:10.696Z,94035.74
2018-03-22T17:23:39.105Z,94023.05
2018-03-22T17:26:07.464Z,94000.63
2018-03-22T17:28:35.900Z,94007.38
2018-03-22T17:31:04.269Z,93996.81
2018-03-22T17:33:32.668Z,93989.50
2018-03-22T17:36:01.039Z,93989.92
2018-03-22T17:38:29.475Z,93990.05
2018-03-22T17:40:57.968Z,93988.72
2018-03-22T17:43:26.380Z,93947.12
2018-03-22T17:45:54.757Z,93945.86
2018-03-22T17:48:23.129Z,93948.89
2018-03-22T17:50:51.600Z,93946.02
2018-03-22T17:53:20.029Z,93957.59
2018-03-22T17:55:49.137Z,93919.36
2018-03-22T17:58:17.531Z,93883.98
2018-03-22T18:00:45.939Z,93947.78
2018-03-22T18:03:14.375Z,93956.34
2018-03-22T18:05:42.772Z,93922.17
2018-03-22T18:08:11.180Z,93922.73
2018-03-22T18:10:39.568Z,93914.47
2018-03-22T18:13:08.019Z,93889.97
2018-03-22T18:15:36.373Z,93888.75
2018-03-22T18:18:04.821Z,93909.63
2018-03-22T18:20:33.219Z,93918.83
2018-03-22T18:23:01.641Z,93933.55
2018-03-22T18:25:30.028Z,93935.00
2018-03-22T18:27:58.441Z,93952.52
2018-03-22T18:30:26.908Z,93943.96
2018-03-22T18:32:55.307Z,93933.05
2018-03-22T18:35:23.746Z,93952.64
2018-03-22T18:37:52.148Z,93947.00
2018-03-22T18:40:20.525Z,93939.20
2018-03-22T18:42:48.943Z,93894.94
2018-03-22T18:45:17.469Z,93918.34
2018-03-22T18:47:45.885Z,93905.13
2018-03-22T18:50:14.314Z,93878.68
2018-03-22T18:52:42.694Z,93915.66
2018-03-22T18:55:11.109Z,93893.61
2018-03-22T18:57:39.479Z,93903.08
2018-03-22T19:00:07.968Z,93914.38
2018-03-22T19:02:36.384Z,93896.59
2018-03-22T19:05:04.760Z,93850.87
2018-03-22T19:07:33.205Z,93856.63
2018-03-22T19:10:01.573Z,93839.09
2018-03-22T19:12:30.008Z,93762.02
2018-03-22T19:14:58.369Z,93806.23
2018-03-22T19:17:26.803Z,93815.53
2018-03-22T19:19:55.401Z,93812.89
2018-03-22T19:22:23.960Z,93804.03
2018-03-22T19:24:52.336Z,93817.48
2018-03-22T19:27:20.771Z,93800.59
2018-03-22T19:29:49.150Z,93774.77
2018-03-22T19:32:17.531Z,93793.48
2018-03-22T19:34:45.975Z,93784.97
2018-03-22T19:37:14.343Z,93816.71
2018-03-22T19:39:42.741Z,93823.55
2018-03-22T19:42:11.154Z,93798.08
2018-03-22T19:44:39.552Z,93800.20
2018-03-22T19:47:07.950Z,93765.12
2018-03-22T19:49:36.376Z,93719.45
2018-03-22T19:52:04.857Z,93729.64
2018-03-22T19:54:33.223Z,93715.13
2018-03-22T19:57:01.645Z,93704.41
2018-03-22T19:59:30.045Z,93701.06
2018-03-22T20:01:58.418Z,93700.09
2018-03-22T20:04:26.843Z,93711.51
2018-03-22T20:06:55.225Z,93731.27
2018-03-22T20:09:23.593Z,93715.47
2018-03-22T20:11:52.124Z,93737.80
2018-03-22T20:14:20.688Z,93729.86
2018-03-22T20:16:49.171Z,93732.29
2018-03-22T20:19:18.348Z,93713.41
2018-03-22T20:21:47.171Z,93728.80
2018-03-22T20:24:15.758Z,93708.02
2018-03-22T20:26:44.309Z,93704.27
2018-03-22T20:29:12.928Z,93719.27
2018-03-22T20:31:41.549Z,93686.53
2018-03-22T20:34:10.334Z,93675.78
2018-03-22T20:36:38.991Z,93672.19
2018-03-22T20:39:07.406Z,93682.20
2018-03-22T20:41:36.133Z,93670.17
2018-03-22T20:44:04.754Z,93649.85
2018-03-22T20:46:33.367Z,93650.52
2018-03-22T20:49:01.735Z,93615.61
2018-03-22T20:51:30.168Z,93598.64
2018-03-22T20:53:58.548Z,93589.84
2018-03-22T20:56:26.948Z,93595.17
2018-03-22T20:58:55.363Z,93580.77
2018-03-22T21:01:23.743Z,93553.40
2018-03-22T21:03:52.229Z,93580.38
2018-03-22T21:06:20.569Z,93548.72
2018-03-22T21:08:49.004Z,93535.48
2018-03-22T21:11:17.469Z,93560.16
2018-03-22T21:13:45.904Z,93569.05
2018-03-22T21:16:14.283Z,93548.98
2018-03-22T21:18:42.744Z,93543.58
2018-03-22T21:21:11.170Z,93551.75
2018-03-22T21:23:39.668Z,93562.16
2018-03-22T21:26:08.082Z,93533.72
2018-03-22T21:28:36.491Z,93519.66
2018-03-22T21:31:04.890Z,93518.47
2018-03-22T21:33:33.304Z,93512.08
2018-03-22T21:36:01.656Z,93476.02
2018-03-22T21:38:30.073Z,93476.85
2018-03-22T21:40:58.556Z,93451.44
2018-03-22T21:43:26.916Z,93466.20
2018-03-22T21:45:55.300Z,93470.64
2018-03-22T21:48:23.668Z,93479.69
2018-03-22T21:50:52.176Z,93506.55
2018-03-22T21:53:20.647Z,93488.84
2018-03-22T21:55:49.220Z,93500.69
2018-03-22T21:58:17.590Z,93492.81
2018-03-22T22:00:45.942Z,93484.84
2018-03-22T22:03:14.335Z,93496.94
2018-03-22T22:05:42.774Z,93507.16
2018-03-22T22:08:11.155Z,93512.41
2018-03-22T22:10:39.528Z,93485.75
2018-03-22T22:13:07.958Z,93497.94
2018-03-22T22:15:36.337Z,93506.51
2018-03-22T22:18:04.790Z,93513.98
2018-03-22T22:20:33.196Z,93549.23
2018-03-22T22:23:01.596Z,93582.91
2018-03-22T22:25:29.971Z,93600.92
2018-03-22T22:27:58.393Z,93598.27
2018-03-22T22:30:26.765Z,93607.94
2018-03-22T22:32:55.141Z,93611.95
2018-03-22T22:35:23.570Z,93577.07
2018-03-22T22:37:51.952Z,93595.95
2018-03-22T22:40:20.360Z,93603.01
2018-03-22T22:42:48.827Z,93616.32
2018-03-22T22:45:17.232Z,93636.80
2018-03-22T22:47:45.591Z,93651.73
2018-03-22T22:50:14.036Z,93676.59
2018-03-22T22:52:42.411Z,93680.16
2018-03-22T22:55:10.780Z,93690.13
2018-03-22T22:57:39.179Z,93684.88
2018-03-22T23:00:07.590Z,93662.98
2018-03-22T23:02:36.109Z,93654.91
2018-03-22T23:05:04.544Z,93617.06
2018-03-22T23:07:32.937Z,93575.37
2018-03-22T23:10:01.326Z,93556.75
2018-03-22T23:12:29.793Z,93562.66
2018-03-22T23:14:58.236Z,93437.20
2018-03-22T23:17:26.829Z,93589.00
2018-03-22T23:19:55.343Z,93553.80
2018-03-22T23:22:23.756Z,93505.28
2018-03-22T23:24:52.154Z,93515.70
2018-03-22T23:27:20.522Z,93488.75
2018-03-22T23:29:48.968Z,93504.68
2018-03-22T23:32:17.472Z,93488.34
2018-03-22T23:34:45.889Z,93357.16
2018-03-22T23:37:14.372Z,93497.45
2018-03-22T23:39:42.793Z,93470.58
2018-03-22T23:42:11.297Z,93471.95
2018-03-22T23:44:39.777Z,93465.35
2018-03-22T23:47:08.180Z,93473.33
2018-03-22T23:49:36.664Z,93485.50
2018-03-22T23:52:05.038Z,93471.53
2018-03-22T23:54:33.557Z,93463.68
2018-03-22T23:57:01.977Z,93467.67
2018-03-22T23:59:30.467Z,93467.80
